Beaver Islander — WT5906 — position and weather

sailwx.info

Track history (hours):
 
Tides and Currents Weather Stations Pressure Air Temp Water Temp Dewpoint Dewpoint Depression Visibility Wind Speed Wind Dir Waves Ship Positions

Beaver Islander

Owner: BEAVER ISLAND BOAT CO, CHARLEVOIX, MI. More information available from US FCC via Universal Licensing System and Coast Guard Vessel Documentation Center.

Last reported at 2016-Aug-21 23:33 UTC. Time now 2016-Aug-28 00:29 UTC.
Position N 45°44' W 085°29'.

Length 28 m; draft 3 m.

Type: Passenger vessel. MMSI: 366936060.

Date/timePositionNaut miles runAvg speedWind from/ knotsBaromVisibWave heightAir tempDewpointWater temp
2016-Aug-21 23:33N 45°44' W 085°29'1313.0
2016-Aug-21 22:33N 45°32' W 085°22'1313.0
2016-Aug-21 21:34N 45°19' W 085°16'0 0.5
2016-Aug-21 20:33N 45°19' W 085°15'1212.5
2016-Aug-21 19:33N 45°31' W 085°22'1313.1
2016-Aug-21 18:33N 45°43' W 085°29'3 2.3
2016-Aug-21 17:26N 45°45' W 085°31'2 0.1
2016-Aug-20 23:33N 45°44' W 085°29'1313.0
2016-Aug-20 22:33N 45°32' W 085°22'1313.2
2016-Aug-20 21:33N 45°19' W 085°16'0 0.2
2016-Aug-20 20:33N 45°19' W 085°16'1312.5
2016-Aug-20 19:33N 45°31' W 085°22'1312.7
2016-Aug-20 18:33N 45°43' W 085°28'2 1.5
2016-Aug-20 17:33N 45°44' W 085°30'1313.2
2016-Aug-20 16:33N 45°32' W 085°23'1313.3
2016-Aug-20 15:33N 45°19' W 085°16'0 0.4
2016-Aug-20 14:33N 45°19' W 085°15'1312.5
2016-Aug-20 13:33N 45°31' W 085°22'1313.1
2016-Aug-20 12:33N 45°43' W 085°29'2 2.0
2016-Aug-20 11:20N 45°45' W 085°31'2 0.1
2016-Aug-19 23:33N 45°44' W 085°29'1313.2
2016-Aug-19 22:33N 45°32' W 085°22'13 6.7
2016-Aug-19 20:33N 45°19' W 085°15'1212.3
2016-Aug-19 19:33N 45°30' W 085°22'1313.3
2016-Aug-19 18:33N 45°43' W 085°29'3 2.4
2016-Aug-19 17:32N 45°45' W 085°31'  
2016-Aug-14 23:34N 45°44' W 085°29'1313.2
2016-Aug-14 22:34N 45°31' W 085°22'13 6.4
2016-Aug-14 20:31N 45°19' W 085°16'1212.8
2016-Aug-14 19:33N 45°31' W 085°22'1313.1
2016-Aug-14 18:33N 45°43' W 085°29'3 2.5
2016-Aug-14 17:32N 45°45' W 085°31'0 0.0
2016-Aug-14 16:32N 45°45' W 085°31'2 0.1
2016-Aug-13 23:33N 45°43' W 085°29'1313.1
2016-Aug-13 22:33N 45°31' W 085°22'13 6.3
2016-Aug-13 20:32N 45°19' W 085°16'1313.0
2016-Aug-13 19:33N 45°31' W 085°22'1313.0
2016-Aug-13 18:33N 45°43' W 085°29'1 0.6
2016-Aug-13 17:33N 45°44' W 085°29'1313.0
2016-Aug-13 16:33N 45°32' W 085°22'1313.2
2016-Aug-13 15:33N 45°19' W 085°16'0 0.0
2016-Aug-13 14:33N 45°19' W 085°16'1312.6
2016-Aug-13 13:33N 45°31' W 085°22'1312.8
2016-Aug-13 12:33N 45°43' W 085°29'3 2.4
2016-Aug-13 11:31N 45°45' W 085°31'0 0.0
2016-Aug-13 10:33N 45°45' W 085°31'1 0.1
2016-Aug-12 23:33N 45°44' W 085°30'1313.2
2016-Aug-12 22:34N 45°32' W 085°23'1313.3
2016-Aug-12 21:34N 45°19' W 085°16'0 0.0
2016-Aug-12 20:33N 45°19' W 085°16'1312.6
2016-Aug-12 19:33N 45°31' W 085°22'1312.8
2016-Aug-12 18:33N 45°43' W 085°29'2 1.8
2016-Aug-12 17:10N 45°45' W 085°31'  
Track history (hours):
 
Tides and Currents Weather Stations Pressure Air Temp Water Temp Dewpoint Dewpoint Depression Visibility Wind Speed Wind Dir Waves Ship Positions

Beaver Islander

Owner: BEAVER ISLAND BOAT CO, CHARLEVOIX, MI. More information available from US FCC via Universal Licensing System and Coast Guard Vessel Documentation Center.

Last reported at 2016-Aug-21 23:33 UTC. Time now 2016-Aug-28 00:29 UTC.
Position N 45°44' W 085°29'.

Length 28 m; draft 3 m.

Type: Passenger vessel. MMSI: 366936060.

Date/timePositionNaut miles runAvg speedWind from/ knotsBaromVisibWave heightAir tempDewpointWater temp
2016-Aug-21 23:33N 45°44' W 085°29'1313.0
2016-Aug-21 22:33N 45°32' W 085°22'1313.0
2016-Aug-21 21:34N 45°19' W 085°16'0 0.5
2016-Aug-21 20:33N 45°19' W 085°15'1212.5
2016-Aug-21 19:33N 45°31' W 085°22'1313.1
2016-Aug-21 18:33N 45°43' W 085°29'3 2.3
2016-Aug-21 17:26N 45°45' W 085°31'2 0.1
2016-Aug-20 23:33N 45°44' W 085°29'1313.0
2016-Aug-20 22:33N 45°32' W 085°22'1313.2
2016-Aug-20 21:33N 45°19' W 085°16'0 0.2
2016-Aug-20 20:33N 45°19' W 085°16'1312.5
2016-Aug-20 19:33N 45°31' W 085°22'1312.7
2016-Aug-20 18:33N 45°43' W 085°28'2 1.5
2016-Aug-20 17:33N 45°44' W 085°30'1313.2
2016-Aug-20 16:33N 45°32' W 085°23'1313.3
2016-Aug-20 15:33N 45°19' W 085°16'0 0.4
2016-Aug-20 14:33N 45°19' W 085°15'1312.5
2016-Aug-20 13:33N 45°31' W 085°22'1313.1
2016-Aug-20 12:33N 45°43' W 085°29'2 2.0
2016-Aug-20 11:20N 45°45' W 085°31'2 0.1
2016-Aug-19 23:33N 45°44' W 085°29'1313.2
2016-Aug-19 22:33N 45°32' W 085°22'13 6.7
2016-Aug-19 20:33N 45°19' W 085°15'1212.3
2016-Aug-19 19:33N 45°30' W 085°22'1313.3
2016-Aug-19 18:33N 45°43' W 085°29'3 2.4
2016-Aug-19 17:32N 45°45' W 085°31'  
2016-Aug-14 23:34N 45°44' W 085°29'1313.2
2016-Aug-14 22:34N 45°31' W 085°22'13 6.4
2016-Aug-14 20:31N 45°19' W 085°16'1212.8
2016-Aug-14 19:33N 45°31' W 085°22'1313.1
2016-Aug-14 18:33N 45°43' W 085°29'3 2.5
2016-Aug-14 17:32N 45°45' W 085°31'0 0.0
2016-Aug-14 16:32N 45°45' W 085°31'2 0.1
2016-Aug-13 23:33N 45°43' W 085°29'1313.1
2016-Aug-13 22:33N 45°31' W 085°22'13 6.3
2016-Aug-13 20:32N 45°19' W 085°16'1313.0
2016-Aug-13 19:33N 45°31' W 085°22'1313.0
2016-Aug-13 18:33N 45°43' W 085°29'1 0.6
2016-Aug-13 17:33N 45°44' W 085°29'1313.0
2016-Aug-13 16:33N 45°32' W 085°22'1313.2
2016-Aug-13 15:33N 45°19' W 085°16'0 0.0
2016-Aug-13 14:33N 45°19' W 085°16'1312.6
2016-Aug-13 13:33N 45°31' W 085°22'1312.8
2016-Aug-13 12:33N 45°43' W 085°29'3 2.4
2016-Aug-13 11:31N 45°45' W 085°31'0 0.0
2016-Aug-13 10:33N 45°45' W 085°31'1 0.1
2016-Aug-12 23:33N 45°44' W 085°30'1313.2
2016-Aug-12 22:34N 45°32' W 085°23'1313.3
2016-Aug-12 21:34N 45°19' W 085°16'0 0.0
2016-Aug-12 20:33N 45°19' W 085°16'1312.6
2016-Aug-12 19:33N 45°31' W 085°22'1312.8
2016-Aug-12 18:33N 45°43' W 085°29'2 1.8
2016-Aug-12 17:10N 45°45' W 085°31'  

Dump ship's entire track history